Terminal Aerodrome Forecast
Issued by NWS

Home | Current Version | Previous Version | Text Only | Print | Product List | Glossary On
Versions: 1 2 3 4 5 6 7 8 9 10 11 12 13 14 15 16 17 18
092
FTUS43 KMQT 232334
TAFIWD
TAF
KIWD 232334Z 2400/2424 33004KT P6SM SCT020
      TEMPO 2401/2405 BKN020
     FM240700 03007KT P6SM VCSH OVC020
     FM241200 05011G21KT 6SM -SN OVC010
     FM241400 05016G28KT 4SM -SN OVC010
     FM241600 05020G32KT 2SM -SN BLSN VV010
     FM241900 04019G31KT 1 1/2SM -SN BLSN VV010=

USA.gov is the U.S. government's official web portal to all federal, state and local government web resources and services.